createdAt,value
2017-08-09T00:00:17.447Z,4.47
2017-08-09T00:02:44.955Z,3.80
2017-08-09T00:05:12.552Z,3.50
2017-08-09T00:07:40.117Z,3.57
2017-08-09T00:10:07.623Z,3.63
2017-08-09T00:12:35.187Z,3.80
2017-08-09T00:15:02.687Z,3.73
2017-08-09T00:17:30.219Z,4.30
2017-08-09T00:19:57.715Z,3.23
2017-08-09T00:22:25.236Z,2.90
2017-08-09T00:24:52.807Z,4.17
2017-08-09T00:27:20.305Z,3.67
2017-08-09T00:29:47.807Z,3.50
2017-08-09T00:32:15.595Z,3.50
2017-08-09T00:34:43.108Z,3.30
2017-08-09T00:37:10.600Z,3.63
2017-08-09T00:39:38.387Z,3.53
2017-08-09T00:42:05.886Z,3.50
2017-08-09T00:44:33.399Z,3.87
2017-08-09T00:47:01.041Z,4.13
2017-08-09T00:49:28.538Z,4.33
2017-08-09T00:51:56.299Z,4.23
2017-08-09T00:54:23.887Z,3.63
2017-08-09T00:56:51.379Z,3.90
2017-08-09T00:59:18.885Z,3.20
2017-08-09T01:01:46.431Z,3.67
2017-08-09T01:04:13.923Z,3.57
2017-08-09T01:06:41.683Z,3.37
2017-08-09T01:09:09.483Z,3.93
2017-08-09T01:11:36.992Z,4.07
2017-08-09T01:14:04.502Z,3.13
2017-08-09T01:16:32.303Z,3.30
2017-08-09T01:18:59.947Z,3.97
2017-08-09T01:21:27.518Z,3.90
2017-08-09T01:23:55.086Z,3.70
2017-08-09T01:26:22.583Z,3.63
2017-08-09T01:28:50.401Z,4.20
2017-08-09T01:31:18.281Z,4.20
2017-08-09T01:33:45.847Z,4.20
2017-08-09T01:36:13.468Z,4.63
2017-08-09T01:38:41.243Z,4.10
2017-08-09T01:41:08.783Z,4.27
2017-08-09T01:43:36.314Z,5.47
2017-08-09T01:46:04.300Z,3.87
2017-08-09T01:48:31.812Z,4.10
2017-08-09T01:50:59.311Z,4.80
2017-08-09T01:53:26.841Z,4.23
2017-08-09T01:55:54.379Z,4.43
2017-08-09T01:58:21.927Z,3.90
2017-08-09T02:00:49.472Z,4.07
2017-08-09T02:03:16.976Z,4.23
2017-08-09T02:05:44.954Z,5.07
2017-08-09T02:08:12.643Z,4.67
2017-08-09T02:10:40.156Z,4.10
2017-08-09T02:13:07.787Z,3.90
2017-08-09T02:15:35.451Z,4.60
2017-08-09T02:18:02.994Z,3.70
2017-08-09T02:20:30.904Z,3.87
2017-08-09T02:22:58.456Z,4.40
2017-08-09T02:25:26.039Z,4.50
2017-08-09T02:27:53.961Z,5.50
2017-08-09T02:30:21.752Z,4.73
2017-08-09T02:32:49.258Z,3.80
2017-08-09T02:35:17.019Z,4.77
2017-08-09T02:37:44.526Z,4.27
2017-08-09T02:40:12.023Z,5.00
2017-08-09T02:42:40.096Z,4.70
2017-08-09T02:45:07.827Z,4.87
2017-08-09T02:47:35.446Z,4.17
2017-08-09T02:50:03.410Z,4.47
2017-08-09T02:52:31.524Z,5.40
2017-08-09T02:54:59.399Z,4.80
2017-08-09T02:57:26.919Z,5.33
2017-08-09T02:59:54.567Z,5.67
2017-08-09T03:02:22.698Z,5.40
2017-08-09T03:04:50.255Z,5.00
2017-08-09T03:07:17.759Z,5.20
2017-08-09T03:09:45.281Z,4.67
2017-08-09T03:12:12.779Z,4.80
2017-08-09T03:14:40.878Z,5.10
2017-08-09T03:17:08.402Z,4.83
2017-08-09T03:19:35.899Z,5.20
2017-08-09T03:22:03.442Z,6.30
2017-08-09T03:24:30.948Z,5.07
2017-08-09T03:26:58.514Z,5.63
2017-08-09T03:29:26.472Z,5.27
2017-08-09T03:31:53.979Z,5.30
2017-08-09T03:34:21.480Z,5.00
2017-08-09T03:36:49.051Z,4.80
2017-08-09T03:39:16.573Z,6.07
2017-08-09T03:41:43.832Z,4.40
2017-08-09T03:44:11.697Z,5.30
2017-08-09T03:46:39.203Z,6.10
2017-08-09T03:49:06.744Z,4.60
2017-08-09T03:51:34.395Z,6.03
2017-08-09T03:54:01.908Z,5.80
2017-08-09T03:56:29.428Z,5.97
2017-08-09T03:58:56.980Z,5.37
2017-08-09T04:01:24.513Z,6.10
2017-08-09T04:03:52.021Z,5.23
2017-08-09T04:06:19.579Z,5.63
2017-08-09T04:08:47.095Z,6.80
2017-08-09T04:11:14.763Z,5.90
2017-08-09T04:13:42.606Z,6.10
2017-08-09T04:16:10.188Z,6.07
2017-08-09T04:18:37.755Z,7.43
2017-08-09T04:21:05.555Z,6.50
2017-08-09T04:23:33.110Z,6.10
2017-08-09T04:26:00.833Z,7.37
2017-08-09T04:28:28.488Z,6.00
2017-08-09T04:30:55.986Z,6.20
2017-08-09T04:33:23.506Z,7.00
2017-08-09T04:35:51.915Z,6.40
2017-08-09T04:38:19.911Z,6.37
2017-08-09T04:40:47.805Z,5.33
2017-08-09T04:43:15.385Z,6.23
2017-08-09T04:45:42.947Z,6.13
2017-08-09T04:48:10.509Z,6.60
2017-08-09T04:50:38.015Z,6.00
2017-08-09T04:53:05.892Z,6.03
2017-08-09T04:55:33.587Z,6.03
2017-08-09T04:58:01.091Z,7.43
2017-08-09T05:00:28.965Z,8.13
2017-08-09T05:02:56.755Z,5.93
2017-08-09T05:05:24.264Z,6.00
2017-08-09T05:07:52.169Z,6.47
2017-08-09T05:10:19.678Z,6.77
2017-08-09T05:12:47.463Z,6.30
2017-08-09T05:15:15.156Z,7.50
2017-08-09T05:17:42.723Z,6.77
2017-08-09T05:20:10.231Z,5.47
2017-08-09T05:22:38.607Z,5.40
2017-08-09T05:25:07.080Z,6.07
2017-08-09T05:27:35.487Z,6.37
2017-08-09T05:30:03.430Z,6.57
2017-08-09T05:32:31.084Z,7.03
2017-08-09T05:35:02.520Z,6.93
2017-08-09T05:37:32.727Z,6.63
2017-08-09T05:40:05.131Z,7.33
2017-08-09T05:42:34.045Z,6.60
2017-08-09T05:45:02.428Z,6.27
2017-08-09T05:47:31.124Z,6.60
2017-08-09T05:49:58.865Z,6.60
2017-08-09T05:52:26.708Z,6.37
2017-08-09T05:54:57.290Z,6.53
2017-08-09T05:57:29.938Z,6.00
2017-08-09T05:59:58.742Z,6.67
2017-08-09T06:02:30.041Z,6.70
2017-08-09T06:05:00.719Z,6.40
2017-08-09T06:07:30.868Z,5.30
2017-08-09T06:10:00.095Z,5.93
2017-08-09T06:12:29.241Z,5.20
2017-08-09T06:15:00.217Z,5.77
2017-08-09T06:17:29.295Z,5.73
2017-08-09T06:19:57.748Z,6.40
2017-08-09T06:22:27.018Z,5.77
2017-08-09T06:24:57.230Z,6.27
2017-08-09T06:27:26.176Z,6.13
2017-08-09T06:29:53.952Z,5.70
2017-08-09T06:32:21.462Z,5.50
2017-08-09T06:34:51.810Z,6.37
2017-08-09T06:37:19.387Z,5.07
2017-08-09T06:39:47.072Z,5.40
2017-08-09T06:42:15.121Z,5.80
2017-08-09T06:44:42.726Z,5.50
2017-08-09T06:47:10.318Z,6.03
2017-08-09T06:49:37.823Z,6.40
2017-08-09T06:52:05.758Z,5.70
2017-08-09T06:54:33.365Z,5.57
2017-08-09T06:57:00.955Z,5.13
2017-08-09T06:59:28.992Z,4.87
2017-08-09T07:01:56.680Z,4.50
2017-08-09T07:04:24.943Z,4.67
2017-08-09T07:06:52.509Z,5.00
2017-08-09T07:09:20.050Z,5.20
2017-08-09T07:11:47.718Z,4.83
2017-08-09T07:14:15.510Z,5.13
2017-08-09T07:16:45.216Z,4.90
2017-08-09T07:19:13.397Z,5.93
2017-08-09T07:21:41.329Z,5.60
2017-08-09T07:24:08.977Z,5.47
2017-08-09T07:26:36.609Z,6.10
2017-08-09T07:29:04.466Z,5.87
2017-08-09T07:31:31.966Z,7.47
2017-08-09T07:33:59.458Z,5.90
2017-08-09T07:36:27.290Z,5.70
2017-08-09T07:38:54.787Z,5.10
2017-08-09T07:41:23.388Z,5.93
2017-08-09T07:43:51.082Z,5.93
2017-08-09T07:46:18.688Z,4.90
2017-08-09T07:48:46.194Z,5.67
2017-08-09T07:51:13.781Z,5.27
2017-08-09T07:53:41.426Z,5.67
2017-08-09T07:56:08.983Z,5.20
2017-08-09T07:58:36.607Z,6.07
2017-08-09T08:01:04.271Z,5.90
2017-08-09T08:03:31.836Z,5.80
2017-08-09T08:05:59.419Z,5.37
2017-08-09T08:08:26.935Z,5.37
2017-08-09T08:10:54.501Z,4.70
2017-08-09T08:13:22.279Z,6.37
2017-08-09T08:15:49.911Z,5.40
2017-08-09T08:18:17.503Z,4.83
2017-08-09T08:20:45.034Z,4.67
2017-08-09T08:23:12.548Z,4.30
2017-08-09T08:25:40.761Z,4.90
2017-08-09T08:28:08.258Z,4.33
2017-08-09T08:30:35.775Z,4.60
2017-08-09T08:33:03.747Z,4.90
2017-08-09T08:35:31.247Z,5.43
2017-08-09T08:37:58.748Z,4.60
2017-08-09T08:40:26.538Z,5.40
2017-08-09T08:42:54.052Z,4.23
2017-08-09T08:45:21.600Z,4.60
2017-08-09T08:47:49.383Z,4.77
2017-08-09T08:50:16.942Z,4.33
2017-08-09T08:52:44.440Z,5.10
2017-08-09T08:55:12.267Z,3.77
2017-08-09T08:57:39.767Z,4.20
2017-08-09T09:00:07.271Z,3.30
2017-08-09T09:02:36.478Z,3.50
2017-08-09T09:05:03.992Z,3.20
2017-08-09T09:07:31.487Z,3.40
2017-08-09T09:09:59.490Z,3.03
2017-08-09T09:12:26.992Z,3.40
2017-08-09T09:14:54.492Z,3.53
2017-08-09T09:17:22.047Z,3.40
2017-08-09T09:19:49.552Z,3.30
2017-08-09T09:22:17.051Z,3.50
2017-08-09T09:24:44.618Z,4.13
2017-08-09T09:27:12.110Z,4.03
2017-08-09T09:29:39.610Z,4.60
2017-08-09T09:32:07.152Z,3.50
2017-08-09T09:34:34.655Z,3.87
2017-08-09T09:37:02.167Z,4.07
2017-08-09T09:39:29.748Z,3.50
2017-08-09T09:41:57.243Z,3.90
2017-08-09T09:44:24.742Z,4.37
2017-08-09T09:46:52.668Z,3.97
2017-08-09T09:49:20.164Z,3.43
2017-08-09T09:51:47.685Z,3.63
2017-08-09T09:54:15.405Z,4.93
2017-08-09T09:56:42.902Z,4.50
2017-08-09T09:59:10.403Z,3.40
2017-08-09T10:01:37.956Z,3.70
2017-08-09T10:04:05.455Z,4.17
2017-08-09T10:06:32.951Z,3.93
2017-08-09T10:09:00.930Z,3.53
2017-08-09T10:11:28.432Z,3.50
2017-08-09T10:13:55.935Z,4.10
2017-08-09T10:16:23.495Z,3.80
2017-08-09T10:18:50.997Z,3.37
2017-08-09T10:21:18.495Z,4.07
2017-08-09T10:23:46.098Z,3.30
2017-08-09T10:26:13.603Z,3.80
2017-08-09T10:28:41.133Z,3.80
2017-08-09T10:31:09.377Z,3.83
2017-08-09T10:33:36.955Z,3.70
2017-08-09T10:36:04.569Z,3.30
2017-08-09T10:38:32.143Z,3.53
2017-08-09T10:40:59.673Z,3.40
2017-08-09T10:43:27.179Z,3.43
2017-08-09T10:45:55.065Z,3.73
2017-08-09T10:48:22.716Z,3.97
2017-08-09T10:50:50.210Z,3.20
2017-08-09T10:53:17.808Z,3.40
2017-08-09T10:55:45.308Z,2.97
2017-08-09T10:58:12.810Z,3.63
2017-08-09T11:00:40.395Z,2.93
2017-08-09T11:03:07.903Z,2.90
2017-08-09T11:05:35.403Z,3.27
2017-08-09T11:08:02.991Z,2.77
2017-08-09T11:10:30.514Z,3.20
2017-08-09T11:12:58.079Z,3.67
2017-08-09T11:15:25.987Z,3.37
2017-08-09T11:17:53.495Z,3.57
2017-08-09T11:20:21.030Z,3.03
2017-08-09T11:22:48.729Z,3.53
2017-08-09T11:25:16.235Z,3.20
2017-08-09T11:27:43.736Z,3.40
2017-08-09T11:30:11.299Z,3.20
2017-08-09T11:32:38.808Z,3.43
2017-08-09T11:35:06.308Z,2.93
2017-08-09T11:37:33.863Z,3.20
2017-08-09T11:40:01.467Z,3.37
2017-08-09T11:42:28.918Z,3.20
2017-08-09T11:44:56.761Z,2.90
2017-08-09T11:47:24.286Z,3.13
2017-08-09T11:49:51.786Z,2.83
2017-08-09T11:52:19.333Z,3.60
2017-08-09T11:54:46.882Z,3.53
2017-08-09T11:57:14.420Z,3.97
2017-08-09T11:59:42.216Z,4.17
2017-08-09T12:02:10.079Z,2.97
2017-08-09T12:04:37.755Z,3.50
2017-08-09T12:07:05.257Z,3.27
2017-08-09T12:09:32.861Z,3.50
2017-08-09T12:12:00.367Z,3.70
2017-08-09T12:14:27.867Z,4.00
2017-08-09T12:16:55.427Z,2.53
2017-08-09T12:19:22.927Z,3.60
2017-08-09T12:21:50.423Z,3.20
2017-08-09T12:24:17.746Z,3.40
2017-08-09T12:26:45.244Z,2.70
2017-08-09T12:29:12.751Z,3.40
2017-08-09T12:31:40.631Z,2.93
2017-08-09T12:34:08.234Z,3.70
2017-08-09T12:36:35.759Z,3.13
2017-08-09T12:39:03.181Z,2.80
2017-08-09T12:41:30.623Z,3.07
2017-08-09T12:43:58.163Z,3.50
2017-08-09T12:46:25.747Z,4.03
2017-08-09T12:48:53.582Z,3.63
2017-08-09T12:51:20.934Z,3.80
2017-08-09T12:53:48.382Z,3.37
2017-08-09T12:56:15.904Z,3.30
2017-08-09T12:58:43.411Z,3.90
2017-08-09T13:01:11.040Z,4.87
2017-08-09T13:03:38.591Z,5.63
2017-08-09T13:06:07.722Z,3.83
2017-08-09T13:08:36.474Z,3.50
2017-08-09T13:11:03.966Z,4.97
2017-08-09T13:13:31.471Z,3.77
2017-08-09T13:15:59.134Z,4.23
2017-08-09T13:18:26.631Z,3.50
2017-08-09T13:20:54.134Z,3.63
2017-08-09T13:23:22.075Z,3.80
2017-08-09T13:25:49.574Z,3.57
2017-08-09T13:28:17.074Z,3.73
2017-08-09T13:30:44.702Z,4.30
2017-08-09T13:33:12.207Z,3.80
2017-08-09T13:35:39.711Z,3.80
2017-08-09T13:38:07.584Z,3.90
2017-08-09T13:40:35.090Z,3.80
2017-08-09T13:43:02.612Z,4.30
2017-08-09T13:45:30.523Z,4.30
2017-08-09T13:47:58.021Z,4.20
2017-08-09T13:50:25.612Z,3.30
2017-08-09T13:52:53.570Z,3.53
2017-08-09T13:55:21.096Z,3.20
2017-08-09T13:57:48.591Z,4.30
2017-08-09T14:00:16.143Z,4.00
2017-08-09T14:02:43.711Z,4.20
2017-08-09T14:05:11.783Z,7.17
2017-08-09T14:07:39.332Z,6.67
2017-08-09T14:10:06.912Z,5.93
2017-08-09T14:12:34.435Z,5.00
2017-08-09T14:15:01.965Z,4.10
2017-08-09T14:17:29.474Z,5.67
2017-08-09T14:19:57.439Z,5.50
2017-08-09T14:22:25.094Z,5.10
2017-08-09T14:24:52.639Z,5.67
2017-08-09T14:27:20.319Z,5.67
2017-08-09T14:29:47.859Z,6.67
2017-08-09T14:32:15.367Z,5.20
2017-08-09T14:34:42.907Z,6.63
2017-08-09T14:37:10.444Z,5.17
2017-08-09T14:39:37.947Z,5.60
2017-08-09T14:42:05.507Z,4.83
2017-08-09T14:44:33.066Z,5.00
2017-08-09T14:47:00.586Z,4.90
2017-08-09T14:49:28.098Z,4.90
2017-08-09T14:51:55.918Z,4.60
2017-08-09T14:54:23.422Z,4.70
2017-08-09T14:56:50.935Z,5.53
2017-08-09T14:59:18.540Z,5.43
2017-08-09T15:01:46.066Z,4.33
2017-08-09T15:04:13.577Z,4.70
2017-08-09T15:06:41.290Z,4.20
2017-08-09T15:09:08.795Z,4.40
2017-08-09T15:11:36.290Z,4.57
2017-08-09T15:14:03.850Z,4.40
2017-08-09T15:16:31.360Z,4.20
2017-08-09T15:18:58.870Z,5.10
2017-08-09T15:21:26.694Z,5.40
2017-08-09T15:23:54.217Z,4.40
2017-08-09T15:26:21.722Z,4.77
2017-08-09T15:28:49.606Z,4.37
2017-08-09T15:31:17.098Z,4.80
2017-08-09T15:33:44.625Z,4.47
2017-08-09T15:36:12.206Z,4.00
2017-08-09T15:38:39.743Z,4.10
2017-08-09T15:41:07.258Z,4.73
2017-08-09T15:43:34.815Z,4.67
2017-08-09T15:46:02.447Z,4.80
2017-08-09T15:48:29.958Z,4.10
2017-08-09T15:50:57.521Z,4.63
2017-08-09T15:53:25.031Z,5.40
2017-08-09T15:55:52.303Z,5.00
2017-08-09T15:58:19.865Z,3.97
2017-08-09T16:00:47.406Z,4.20
2017-08-09T16:03:14.907Z,4.07
2017-08-09T16:05:42.439Z,4.40
2017-08-09T16:08:09.982Z,5.10
2017-08-09T16:10:37.494Z,4.60
2017-08-09T16:13:05.376Z,4.90
2017-08-09T16:15:32.907Z,4.70
2017-08-09T16:18:00.426Z,4.87
2017-08-09T16:20:27.968Z,4.10
2017-08-09T16:22:55.523Z,4.43
2017-08-09T16:25:23.059Z,4.50
2017-08-09T16:27:50.886Z,4.83
2017-08-09T16:30:18.411Z,4.33
2017-08-09T16:32:45.953Z,4.83
2017-08-09T16:35:13.544Z,4.47
2017-08-09T16:37:41.083Z,4.40
2017-08-09T16:40:08.611Z,4.90
2017-08-09T16:42:36.166Z,4.93
2017-08-09T16:45:03.681Z,4.50
2017-08-09T16:47:31.192Z,6.33
2017-08-09T16:49:59.109Z,4.53
2017-08-09T16:52:26.666Z,4.80
2017-08-09T16:54:54.175Z,4.47
2017-08-09T16:57:21.996Z,4.50
2017-08-09T16:59:49.490Z,5.20
2017-08-09T17:02:17.006Z,5.17
2017-08-09T17:04:44.554Z,5.17
2017-08-09T17:07:12.067Z,5.67
2017-08-09T17:09:39.567Z,4.40
2017-08-09T17:12:07.884Z,4.40
2017-08-09T17:14:35.437Z,4.60
2017-08-09T17:17:02.955Z,4.50
2017-08-09T17:19:30.767Z,4.40
2017-08-09T17:21:58.271Z,4.50
2017-08-09T17:24:25.810Z,4.40
2017-08-09T17:26:53.399Z,4.70
2017-08-09T17:29:20.896Z,4.30
2017-08-09T17:31:49.426Z,4.73
2017-08-09T17:34:17.034Z,4.13
2017-08-09T17:36:44.618Z,4.50
2017-08-09T17:39:12.122Z,4.17
2017-08-09T17:41:39.675Z,4.47
2017-08-09T17:44:07.180Z,5.30
2017-08-09T17:46:34.686Z,4.90
2017-08-09T17:49:02.765Z,5.03
2017-08-09T17:51:30.598Z,4.00
2017-08-09T17:53:58.092Z,5.30
2017-08-09T17:56:25.771Z,4.40
2017-08-09T17:58:53.252Z,4.20
2017-08-09T18:01:20.789Z,4.07
2017-08-09T18:03:48.702Z,5.10
2017-08-09T18:06:16.203Z,4.13
2017-08-09T18:08:43.711Z,4.43
2017-08-09T18:11:12.119Z,5.00
2017-08-09T18:13:40.060Z,4.17
2017-08-09T18:16:08.350Z,4.20
2017-08-09T18:18:35.910Z,4.73
2017-08-09T18:21:03.768Z,4.33
2017-08-09T18:23:31.267Z,4.33
2017-08-09T18:25:58.797Z,4.60
2017-08-09T18:28:26.379Z,5.20
2017-08-09T18:30:53.987Z,4.50
2017-08-09T18:33:21.482Z,4.30
2017-08-09T18:35:49.020Z,4.07
2017-08-09T18:38:20.366Z,3.77
2017-08-09T18:40:47.939Z,4.43
2017-08-09T18:43:17.666Z,5.33
2017-08-09T18:45:45.346Z,4.63
2017-08-09T18:48:13.230Z,4.10
2017-08-09T18:50:40.731Z,4.30
2017-08-09T18:53:08.239Z,4.00
2017-08-09T18:55:36.030Z,4.63
2017-08-09T18:58:03.545Z,4.90
2017-08-09T19:00:31.599Z,4.33
2017-08-09T19:02:59.443Z,4.57
2017-08-09T19:05:26.991Z,4.50
2017-08-09T19:07:54.495Z,4.10
2017-08-09T19:10:22.524Z,4.10
2017-08-09T19:12:50.024Z,3.90
2017-08-09T19:15:17.682Z,4.40
2017-08-09T19:17:45.527Z,3.87
2017-08-09T19:20:13.022Z,3.67
2017-08-09T19:22:40.579Z,4.93
2017-08-09T19:25:08.947Z,3.87
2017-08-09T19:27:36.814Z,3.67
2017-08-09T19:30:04.412Z,4.03
2017-08-09T19:32:31.949Z,3.80
2017-08-09T19:34:59.510Z,5.30
2017-08-09T19:37:28.066Z,4.10
2017-08-09T19:39:55.930Z,3.57
2017-08-09T19:42:23.440Z,4.10
2017-08-09T19:44:50.947Z,4.20
2017-08-09T19:47:18.763Z,4.23
2017-08-09T19:49:46.273Z,3.90
2017-08-09T19:52:13.780Z,3.70
2017-08-09T19:54:41.313Z,4.30
2017-08-09T19:57:08.811Z,4.00
2017-08-09T19:59:36.410Z,3.47
2017-08-09T20:02:04.239Z,3.60
2017-08-09T20:04:31.757Z,4.20
2017-08-09T20:06:59.263Z,3.60
2017-08-09T20:09:27.087Z,4.23
2017-08-09T20:11:54.587Z,4.07
2017-08-09T20:14:22.088Z,4.07
2017-08-09T20:16:49.624Z,3.90
2017-08-09T20:19:17.267Z,3.53
2017-08-09T20:21:44.798Z,3.80
2017-08-09T20:24:12.711Z,3.50
2017-08-09T20:26:40.223Z,3.83
2017-08-09T20:29:07.879Z,4.10
2017-08-09T20:31:35.888Z,4.10
2017-08-09T20:34:03.396Z,3.77
2017-08-09T20:36:30.943Z,4.27
2017-08-09T20:38:58.514Z,4.50
2017-08-09T20:41:26.015Z,3.90
2017-08-09T20:43:53.505Z,4.17
2017-08-09T20:46:21.398Z,5.73
2017-08-09T20:48:48.946Z,5.23
2017-08-09T20:51:16.499Z,5.10
2017-08-09T20:53:44.117Z,4.70
2017-08-09T20:56:11.627Z,5.20
2017-08-09T20:58:39.144Z,4.60
2017-08-09T21:01:07.295Z,4.27
2017-08-09T21:03:34.807Z,4.17
2017-08-09T21:06:02.682Z,4.50
2017-08-09T21:08:30.223Z,5.13
2017-08-09T21:10:57.763Z,5.43
2017-08-09T21:13:25.279Z,5.33
2017-08-09T21:15:53.091Z,5.07
2017-08-09T21:18:20.599Z,5.80
2017-08-09T21:20:48.106Z,6.73
2017-08-09T21:23:15.994Z,6.70
2017-08-09T21:25:44.271Z,8.20
2017-08-09T21:28:11.927Z,7.20
2017-08-09T21:30:39.439Z,8.00
2017-08-09T21:33:07.554Z,7.70
2017-08-09T21:35:35.063Z,9.87
2017-08-09T21:38:02.576Z,10.83
2017-08-09T21:40:30.587Z,11.00
2017-08-09T21:42:58.104Z,11.93
2017-08-09T21:45:25.723Z,10.67
2017-08-09T21:47:53.319Z,12.57
2017-08-09T21:50:20.839Z,12.70
2017-08-09T21:52:48.361Z,11.63
2017-08-09T21:55:15.946Z,12.60
2017-08-09T21:57:43.463Z,12.97
2017-08-09T22:00:10.995Z,13.90
2017-08-09T22:02:38.648Z,14.27
2017-08-09T22:05:06.318Z,13.77
2017-08-09T22:07:33.839Z,12.07
2017-08-09T22:10:01.339Z,11.57
2017-08-09T22:12:28.939Z,12.07
2017-08-09T22:14:56.447Z,11.20
2017-08-09T22:17:23.950Z,12.13
2017-08-09T22:19:52.158Z,10.60
2017-08-09T22:22:19.656Z,10.50
2017-08-09T22:24:47.176Z,10.10
2017-08-09T22:27:14.722Z,11.50
2017-08-09T22:29:42.241Z,10.77
2017-08-09T22:32:10.243Z,9.40
2017-08-09T22:34:37.796Z,10.97
2017-08-09T22:37:05.343Z,10.40
2017-08-09T22:39:32.916Z,10.53
2017-08-09T22:42:00.951Z,10.40
2017-08-09T22:44:28.454Z,11.83
2017-08-09T22:46:55.956Z,10.93
2017-08-09T22:49:23.628Z,10.63
2017-08-09T22:51:51.130Z,11.47
2017-08-09T22:54:18.626Z,9.17
2017-08-09T22:56:46.177Z,10.10
2017-08-09T22:59:13.679Z,9.13
2017-08-09T23:01:41.179Z,9.83
2017-08-09T23:04:09.017Z,9.93
2017-08-09T23:06:37.065Z,8.63
2017-08-09T23:09:04.594Z,10.27
2017-08-09T23:11:32.591Z,9.37
2017-08-09T23:14:00.099Z,9.37
2017-08-09T23:16:27.596Z,10.00
2017-08-09T23:18:55.152Z,10.07
2017-08-09T23:21:22.682Z,10.10
2017-08-09T23:23:50.190Z,11.47
2017-08-09T23:26:18.057Z,13.10
2017-08-09T23:28:45.760Z,11.43
2017-08-09T23:31:13.370Z,12.23
2017-08-09T23:33:40.910Z,11.60
2017-08-09T23:36:08.423Z,12.23
2017-08-09T23:38:36.277Z,10.90
2017-08-09T23:41:03.771Z,10.47
2017-08-09T23:43:31.266Z,13.73
2017-08-09T23:45:59.067Z,12.80
2017-08-09T23:48:26.570Z,11.33
2017-08-09T23:50:54.146Z,12.83
2017-08-09T23:53:21.707Z,13.00
2017-08-09T23:55:49.231Z,13.60
2017-08-09T23:58:16.730Z,13.83
